Time;durP1;ratioP1;P1;durP2;ratioP2;P2;SDS_P1;SDS_P2;PMS_P1;PMS_P2;Temp;Humidity;BMP_temperature;BMP_pressure;BME280_temperature;BME280_humidity;BME280_pressure;Samples;Min_cycle;Max_cycle;Signal;HPM_P1;HPM_P2
2022/09/29 00:01:44;;;;;;;8.05;5.43;;;;;;;4.29;100.00;100001.88;5053978;28;20033;-76
2022/09/29 00:04:10;;;;;;;9.77;6.18;;;;;;;4.18;100.00;99980.31;5053606;28;20072;-76
2022/09/29 00:06:35;;;;;;;8.18;5.47;;;;;;;4.27;100.00;100002.88;5053612;28;20033;-82
2022/09/29 00:09:01;;;;;;;8.90;6.35;;;;;;;4.26;100.00;100007.16;5053747;28;20021;-78
2022/09/29 00:11:26;;;;;;;7.13;5.18;;;;;;;4.05;100.00;99969.06;5053705;28;20160;-79
2022/09/29 00:13:53;;;;;;;8.00;5.43;;;;;;;4.21;100.00;99998.88;5053717;28;20035;-76
2022/09/29 00:16:18;;;;;;;7.75;5.63;;;;;;;4.18;100.00;100001.59;5053411;28;20029;-76
2022/09/29 00:18:44;;;;;;;8.35;5.97;;;;;;;3.97;100.00;99972.00;5053186;28;20039;-78
2022/09/29 00:21:12;;;;;;;8.02;5.68;;;;;;;4.02;100.00;99977.69;5053440;28;20031;-76
2022/09/29 00:23:38;;;;;;;10.23;6.40;;;;;;;4.05;100.00;99987.78;5053491;28;20025;-77
2022/09/29 00:26:12;;;;;;;7.75;5.88;;;;;;;4.10;100.00;99998.59;5053271;28;20056;-82
2022/09/29 00:28:41;;;;;;;8.88;5.78;;;;;;;4.05;100.00;99995.44;5053364;28;20099;-77
2022/09/29 00:31:08;;;;;;;11.65;6.68;;;;;;;3.93;100.00;99980.69;5053434;28;20017;-77
2022/09/29 00:33:37;;;;;;;10.60;6.47;;;;;;;4.02;100.00;99991.28;5053183;28;20032;-76
2022/09/29 00:36:09;;;;;;;10.85;6.60;;;;;;;4.00;100.00;99994.84;5053204;28;20025;-76
2022/09/29 00:38:34;;;;;;;;;;;;;;;4.03;100.00;99992.97;5053457;28;20032;-76
2022/09/29 00:41:00;;;;;;;8.80;6.03;;;;;;;3.99;100.00;99988.06;5053233;28;19913;-77
2022/09/29 00:43:43;;;;;;;9.63;6.57;;;;;;;3.97;100.00;99990.72;5053103;28;20017;-76
2022/09/29 00:46:10;;;;;;;8.25;6.25;;;;;;;3.91;100.00;99985.88;5053150;28;20033;-76
2022/09/29 00:48:35;;;;;;;10.15;6.07;;;;;;;3.94;100.00;99995.16;5035093;28;20461;-76
2022/09/29 00:51:01;;;;;;;9.63;6.60;;;;;;;3.90;100.00;99991.06;5052962;28;20032;-76
2022/09/29 00:53:27;;;;;;;8.60;6.30;;;;;;;3.71;100.00;99968.97;5052942;28;20032;-76
2022/09/29 00:56:04;;;;;;;8.90;6.18;;;;;;;3.76;100.00;99973.06;5053345;28;20029;-77
2022/09/29 00:58:39;;;;;;;8.90;6.38;;;;;;;3.83;100.00;99997.38;5035177;28;20036;-76
2022/09/29 01:01:05;;;;;;;11.05;6.88;;;;;;;3.65;100.00;99968.47;5052921;28;20032;-76
2022/09/29 01:03:36;;;;;;;13.77;6.88;;;;;;;3.84;100.00;99996.50;5052777;28;20017;-75
2022/09/29 01:06:09;;;;;;;8.98;6.30;;;;;;;3.53;100.00;99951.16;5034996;28;20017;-77
2022/09/29 01:08:56;;;;;;;10.65;7.38;;;;;;;3.76;100.00;99984.09;5052789;28;20032;-76
2022/09/29 01:11:22;;;;;;;10.80;7.10;;;;;;;3.73;100.00;99986.78;5052922;28;20029;-77
2022/09/29 01:13:48;;;;;;;9.63;6.95;;;;;;;3.71;100.00;99989.41;5052848;28;20032;-76
2022/09/29 01:16:14;;;;;;;11.35;8.10;;;;;;;3.71;100.00;99986.84;5052662;28;20029;-76
2022/09/29 01:18:41;;;;;;;12.02;8.10;;;;;;;3.63;100.00;99972.81;5034565;28;20040;-76
2022/09/29 01:21:15;;;;;;;11.85;8.32;;;;;;;3.67;100.00;99987.91;5052806;28;20032;-76
2022/09/29 01:23:52;;;;;;;9.75;7.57;;;;;;;3.65;100.00;99983.78;5052517;28;20036;-78
2022/09/29 01:26:38;;;;;;;11.00;8.30;;;;;;;3.63;100.00;99986.41;5052609;28;20021;-77
2022/09/29 01:29:22;;;;;;;11.77;8.00;;;;;;;3.59;100.00;99987.44;4976552;28;20687;-76
2022/09/29 01:32:11;;;;;;;11.77;7.82;;;;;;;3.59;100.00;99995.09;4995282;28;20042;-77
2022/09/29 01:34:41;;;;;;;10.50;8.05;;;;;;;3.52;100.00;99991.19;4978534;28;20042;-77
2022/09/29 01:37:12;;;;;;;9.90;7.85;;;;;;;3.51;100.00;99992.09;4994924;28;20030;-77
2022/09/29 01:39:46;;;;;;;9.68;7.70;;;;;;;3.37;100.00;99971.50;4995004;28;20046;-77
2022/09/29 01:42:18;;;;;;;9.85;7.63;;;;;;;3.45;100.00;99989.84;4994456;28;20034;-77
2022/09/29 01:44:51;;;;;;;11.70;8.35;;;;;;;3.45;100.00;99993.22;4994889;28;20037;-76
2022/09/29 01:47:36;;;;;;;10.85;8.07;;;;;;;3.35;100.00;99978.41;4994734;28;20100;-78
2022/09/29 01:50:06;;;;;;;11.27;7.82;;;;;;;3.39;100.00;99990.13;4994422;28;20041;-77
2022/09/29 01:52:37;;;;;;;10.50;8.32;;;;;;;3.42;100.00;99997.63;4994662;28;20073;-82
2022/09/29 01:55:09;;;;;;;10.88;8.27;;;;;;;3.38;100.00;99988.47;4994657;28;20023;-80
2022/09/29 01:57:46;;;;;;;11.98;8.40;;;;;;;3.36;100.00;100001.31;4994702;28;20050;-77
2022/09/29 02:00:14;;;;;;;11.27;8.40;;;;;;;3.35;100.00;99989.44;4994821;28;20046;-79
2022/09/29 02:03:05;;;;;;;10.23;8.43;;;;;;;3.34;100.00;99987.78;4994523;28;20034;-75
2022/09/29 02:05:32;;;;;;;13.27;8.88;;;;;;;3.32;100.00;99996.41;5008765;28;20043;-78
2022/09/29 02:08:06;;;;;;;12.50;8.63;;;;;;;3.17;100.00;99980.09;5055825;28;20032;-76
2022/09/29 02:10:36;;;;;;;14.10;9.25;;;;;;;3.28;100.00;99994.91;5055933;28;20510;-77
2022/09/29 02:13:06;;;;;;;12.05;9.00;;;;;;;3.23;100.00;99989.16;5055617;28;20025;-77
2022/09/29 02:15:35;;;;;;;12.35;9.10;;;;;;;3.22;100.00;99988.34;5055774;28;20027;-81
2022/09/29 02:18:09;;;;;;;12.27;9.20;;;;;;;3.23;100.00;99999.38;5055287;28;20546;-76
2022/09/29 02:20:34;;;;;;;12.63;8.60;;;;;;;3.21;100.00;99993.50;5055623;28;20419;-76
2022/09/29 02:23:00;;;;;;;12.00;8.95;;;;;;;3.20;100.00;99999.53;5055550;28;20021;-75
2022/09/29 02:25:25;;;;;;;13.23;8.90;;;;;;;3.14;100.00;99996.34;5037732;28;20029;-77
2022/09/29 02:27:51;;;;;;;12.02;9.02;;;;;;;2.91;100.00;99968.50;5055318;28;20061;-77
2022/09/29 02:30:17;;;;;;;12.57;8.77;;;;;;;3.11;100.00;100000.75;5055640;28;20033;-81
2022/09/29 02:32:43;;;;;;;12.13;8.82;;;;;;;2.83;100.00;99955.28;5037312;28;20037;-76
2022/09/29 02:35:12;;;;;;;12.68;9.00;;;;;;;3.10;100.00;100011.88;5055165;28;20025;-77
2022/09/29 02:37:56;;;;;;;11.93;8.98;;;;;;;3.10;100.00;100005.03;5055261;28;20159;-79
2022/09/29 02:40:52;;;;;;;12.50;9.15;;;;;;;3.08;100.00;100006.84;5054772;28;20079;-77
2022/09/29 02:43:28;;;;;;;13.50;9.30;;;;;;;3.07;100.00;100006.91;5055194;28;20484;-77
2022/09/29 02:46:06;;;;;;;12.20;9.25;;;;;;;3.05;100.00;100004.44;5055021;28;20500;-77
2022/09/29 02:48:38;;;;;;;11.82;9.77;;;;;;;3.03;100.00;99998.56;5054778;28;20044;-75
2022/09/29 02:51:13;;;;;;;;;;;;;;;3.05;100.00;100001.88;5055195;28;20389;-76
2022/09/29 02:54:06;;;;;;;14.40;9.73;;;;;;;2.83;100.00;99978.22;5054887;28;19920;-81
2022/09/29 02:56:58;;;;;;;12.23;9.88;;;;;;;2.98;100.00;100010.69;5054883;28;20037;-78
2022/09/29 02:59:44;;;;;;;13.80;9.25;;;;;;;2.69;100.00;99965.28;4993382;28;20042;-76
2022/09/29 03:02:10;;;;;;;10.90;8.70;;;;;;;2.93;100.00;100004.97;4993496;28;20026;-77
2022/09/29 03:04:35;;;;;;;11.70;9.40;;;;;;;2.94;100.00;100004.06;4993401;28;20043;-82
2022/09/29 03:07:00;;;;;;;12.55;9.50;;;;;;;2.92;100.00;99999.94;4993094;28;20117;-81
2022/09/29 03:09:25;;;;;;;13.65;9.40;;;;;;;2.90;100.00;100001.72;4993234;28;20074;-76
2022/09/29 03:11:51;;;;;;;11.48;9.20;;;;;;;2.83;100.00;99996.06;4993178;28;20026;-75
2022/09/29 03:14:16;;;;;;;12.10;9.82;;;;;;;2.80;100.00;99998.75;4993053;28;20545;-79
2022/09/29 03:16:42;;;;;;;13.60;10.00;;;;;;;2.84;100.00;100007.91;4993065;28;20426;-82
2022/09/29 03:19:07;;;;;;;13.73;10.10;;;;;;;2.74;100.00;100002.41;4992861;28;20078;-82
2022/09/29 03:21:34;;;;;;;14.45;10.77;;;;;;;2.83;100.00;100003.72;4992955;28;20065;-77
2022/09/29 03:24:00;;;;;;;14.63;10.68;;;;;;;2.83;100.00;100003.72;4993277;28;20042;-82
2022/09/29 03:26:25;;;;;;;15.13;10.95;;;;;;;2.74;100.00;99993.91;4993118;28;20046;-81
2022/09/29 03:28:51;;;;;;;14.43;10.25;;;;;;;2.80;100.00;100011.50;4992672;28;20030;-82
2022/09/29 03:31:16;;;;;;;14.77;10.75;;;;;;;2.74;100.00;100002.41;4992967;28;20109;-80
2022/09/29 03:33:42;;;;;;;14.38;11.07;;;;;;;2.76;100.00;100004.91;4993115;28;20034;-79
2022/09/29 03:36:08;;;;;;;15.05;10.60;;;;;;;2.73;100.00;100005.84;5017075;28;20150;-76
2022/09/29 03:38:34;;;;;;;12.50;10.48;;;;;;;2.66;100.00;99998.56;5054110;28;20067;-77
2022/09/29 03:40:59;;;;;;;13.93;10.23;;;;;;;2.73;100.00;100010.13;5054044;28;20025;-77
2022/09/29 03:43:25;;;;;;;13.43;10.75;;;;;;;2.68;100.00;99995.03;5053900;28;20036;-80
2022/09/29 03:45:53;;;;;;;14.50;10.65;;;;;;;2.70;100.00;100003.44;5054035;28;20025;-79
2022/09/29 03:48:20;;;;;;;13.32;9.95;;;;;;;2.63;100.00;99994.38;5054086;28;20028;-80
2022/09/29 03:50:46;;;;;;;14.80;10.68;;;;;;;2.68;100.00;100005.22;5053572;28;20461;-81
2022/09/29 03:53:12;;;;;;;13.23;10.32;;;;;;;2.68;100.00;100001.84;5053349;28;20028;-79
2022/09/29 03:55:37;;;;;;;14.68;10.65;;;;;;;2.36;100.00;99958.22;5053848;28;20028;-80
2022/09/29 03:58:03;;;;;;;16.23;10.90;;;;;;;2.56;100.00;99993.84;5053550;28;20029;-78
2022/09/29 04:00:28;;;;;;;12.98;10.73;;;;;;;2.60;100.00;100004.72;5054026;28;20483;-80
2022/09/29 04:02:54;;;;;;;14.07;11.18;;;;;;;2.52;100.00;99986.38;5053842;28;20029;-78
2022/09/29 04:05:19;;;;;;;14.52;11.45;;;;;;;2.64;100.00;100016.44;5053769;28;20434;-76
2022/09/29 04:07:44;;;;;;;15.77;11.27;;;;;;;2.62;100.00;100002.13;5053508;28;20029;-80
2022/09/29 04:10:10;;;;;;;15.60;11.52;;;;;;;2.64;100.00;100013.88;5053559;28;20021;-77
2022/09/29 04:12:35;;;;;;;14.52;11.43;;;;;;;2.49;100.00;99996.72;5035614;28;20374;-76
2022/09/29 04:15:00;;;;;;;14.45;11.23;;;;;;;2.62;100.00;100020.78;5053463;28;20480;-77
2022/09/29 04:17:26;;;;;;;16.05;12.35;;;;;;;2.61;100.00;100020.84;5053423;28;20080;-80
2022/09/29 04:19:51;;;;;;;13.98;11.38;;;;;;;2.47;100.00;100007.00;5053566;28;20480;-81
2022/09/29 04:22:17;;;;;;;15.77;10.82;;;;;;;2.59;100.00;100026.03;5053152;28;20017;-80
2022/09/29 04:24:43;;;;;;;15.43;11.95;;;;;;;2.56;100.00;100029.53;5053221;28;20040;-81
2022/09/29 04:27:08;;;;;;;16.52;12.40;;;;;;;2.59;100.00;100029.41;5053489;28;20380;-80
2022/09/29 04:29:34;;;;;;;15.00;11.90;;;;;;;2.57;100.00;100030.34;5053249;28;20037;-81
2022/09/29 04:31:59;;;;;;;15.98;12.07;;;;;;;2.44;100.00;100022.38;5053233;28;20097;-77
2022/09/29 04:34:25;;;;;;;14.18;11.38;;;;;;;2.54;100.00;100030.47;5053209;28;20068;-80
2022/09/29 04:36:50;;;;;;;14.90;11.82;;;;;;;2.45;100.00;100021.50;5053104;28;20028;-82
2022/09/29 04:39:15;;;;;;;15.63;11.65;;;;;;;2.49;100.00;100032.41;5053038;28;20455;-81
2022/09/29 04:41:41;;;;;;;15.40;11.82;;;;;;;2.48;100.00;100035.84;5053290;28;20108;-78
2022/09/29 04:44:06;;;;;;;14.00;11.00;;;;;;;2.32;100.00;100011.91;5053290;28;20107;-80
2022/09/29 04:46:31;;;;;;;15.95;12.40;;;;;;;2.45;100.00;100031.69;5053252;28;20044;-76
2022/09/29 04:48:57;;;;;;;15.27;11.75;;;;;;;2.42;100.00;100039.47;5052936;28;20024;-80
2022/09/29 04:51:22;;;;;;;14.93;12.07;;;;;;;2.22;100.00;100016.53;5053269;28;20131;-81
2022/09/29 04:53:47;;;;;;;15.63;12.43;;;;;;;2.29;100.00;100028.97;5052833;28;20033;-81
2022/09/29 04:56:13;;;;;;;14.55;11.30;;;;;;;2.35;100.00;100045.69;5053152;28;20024;-82
2022/09/29 04:58:38;;;;;;;14.85;11.25;;;;;;;2.20;100.00;100025.97;5053090;28;20098;-79
2022/09/29 05:01:09;;;;;;;14.20;11.77;;;;;;;2.34;100.00;100050.88;5052885;28;20072;-80
2022/09/29 05:03:34;;;;;;;15.77;12.15;;;;;;;2.16;100.00;100025.25;5055584;28;20028;-81
2022/09/29 05:05:59;;;;;;;15.57;11.65;;;;;;;2.24;100.00;100045.31;5056867;28;20021;-81
2022/09/29 05:08:24;;;;;;;15.85;11.70;;;;;;;2.14;100.00;100021.13;5056993;28;20026;-77
2022/09/29 05:10:50;;;;;;;17.35;13.25;;;;;;;2.19;100.00;100030.25;5056781;28;20025;-82
2022/09/29 05:13:15;;;;;;;19.52;13.73;;;;;;;2.04;100.00;100004.56;5057092;28;20024;-81
2022/09/29 05:15:41;;;;;;;17.77;13.43;;;;;;;2.33;100.00;100057.69;5056806;28;20048;-76
2022/09/29 05:18:06;;;;;;;16.38;13.00;;;;;;;2.19;100.00;100042.16;5056643;28;20362;-77
2022/09/29 05:20:32;;;;;;;16.50;12.73;;;;;;;2.20;100.00;100042.09;5056575;28;20045;-81
2022/09/29 05:22:58;;;;;;;19.17;13.70;;;;;;;2.33;100.00;100065.31;5056524;28;20025;-80
2022/09/29 05:25:26;;;;;;;16.38;12.95;;;;;;;2.30;100.00;100058.66;5056708;28;20028;-81
2022/09/29 05:27:51;;;;;;;17.85;13.07;;;;;;;2.01;100.00;100023.34;5056499;28;20033;-80
2022/09/29 05:30:16;;;;;;;18.23;13.15;;;;;;;2.29;100.00;100074.00;5056736;28;20055;-81
2022/09/29 05:32:43;;;;;;;18.30;13.30;;;;;;;2.27;100.00;100078.34;5056635;28;20037;-80
2022/09/29 05:35:08;;;;;;;17.45;13.10;;;;;;;2.25;100.00;100072.44;5056220;28;20571;-82
2022/09/29 05:37:34;;;;;;;17.30;13.25;;;;;;;2.25;100.00;100082.63;5056618;28;20104;-83
2022/09/29 05:39:59;;;;;;;15.30;12.90;;;;;;;2.26;100.00;100081.75;5056375;28;20082;-77
2022/09/29 05:42:24;;;;;;;16.38;13.00;;;;;;;2.08;100.00;100052.78;5056477;28;20067;-83
2022/09/29 05:44:50;;;;;;;17.70;13.65;;;;;;;2.27;100.00;100084.25;5056382;28;20033;-83
2022/09/29 05:47:15;;;;;;;17.85;13.63;;;;;;;2.27;100.00;100091.06;5056142;28;20025;-81
2022/09/29 05:49:41;;;;;;;17.77;13.52;;;;;;;1.96;100.00;100032.88;5056245;28;20033;-82
2022/09/29 05:52:06;;;;;;;18.42;13.52;;;;;;;2.32;100.00;100090.88;5056147;28;20033;-83
2022/09/29 05:54:31;;;;;;;15.27;12.63;;;;;;;2.35;100.00;100085.63;5056062;28;20029;-77
2022/09/29 05:56:57;;;;;;;17.88;13.73;;;;;;;2.37;100.00;100097.44;5056162;28;20036;-82
2022/09/29 05:59:22;;;;;;;19.83;14.82;;;;;;;2.39;100.00;100094.84;5056172;28;20142;-82
2022/09/29 06:01:47;;;;;;;17.85;13.18;;;;;;;2.40;100.00;100093.94;5056001;28;20116;-76
2022/09/29 06:04:13;;;;;;;17.95;14.05;;;;;;;2.31;100.00;100077.31;5055701;28;20468;-84
2022/09/29 06:06:39;;;;;;;19.77;14.40;;;;;;;2.49;100.00;100098.66;5054895;28;20051;-74
2022/09/29 06:09:05;;;;;;;20.38;15.23;;;;;;;2.57;100.00;100096.63;5056019;28;20021;-75
2022/09/29 06:11:30;;;;;;;21.15;14.90;;;;;;;2.58;100.00;100096.56;5055840;28;20025;-81
2022/09/29 06:13:57;;;;;;;18.83;14.50;;;;;;;2.64;100.00;100095.44;5055122;28;20029;-80
2022/09/29 06:16:25;;;;;;;19.52;15.40;;;;;;;2.70;100.00;100097.75;5055497;28;20388;-77
2022/09/29 06:18:51;;;;;;;19.63;15.25;;;;;;;2.74;100.00;100101.81;5054231;28;20045;-77
2022/09/29 06:21:25;;;;;;;20.67;15.82;;;;;;;2.45;100.00;100056.34;5055915;28;20025;-85
2022/09/29 06:23:52;;;;;;;20.33;15.55;;;;;;;2.86;100.00;100105.59;5055564;28;20033;-74
2022/09/29 06:26:19;;;;;;;24.58;16.88;;;;;;;2.88;100.00;100096.16;5055452;28;20388;-75
2022/09/29 06:28:45;;;;;;;22.90;15.85;;;;;;;3.05;100.00;100116.66;5055380;28;20036;-80
2022/09/29 06:31:13;;;;;;;22.17;17.27;;;;;;;3.18;100.00;100116.94;5055269;28;20392;-82
2022/09/29 06:33:39;;;;;;;22.85;17.10;;;;;;;3.27;100.00;100118.28;5087372;28;20059;-78
2022/09/29 06:39:10;;;;;;;25.55;18.55;;;;;;;3.35;100.00;100111.94;5055432;28;20087;-78
2022/09/29 06:41:35;;;;;;;22.90;18.02;;;;;;;3.55;100.00;100123.81;5055282;28;20025;-80
2022/09/29 06:44:02;;;;;;;25.25;19.27;;;;;;;3.63;100.00;100134.47;5054980;28;20025;-79
2022/09/29 06:46:27;;;;;;;26.30;20.45;;;;;;;3.73;100.00;100132.31;5054959;28;20357;-75
2022/09/29 06:48:54;;;;;;;27.08;21.15;;;;;;;3.66;100.00;100116.47;5055140;28;20036;-74
2022/09/29 06:51:21;;;;;;;29.13;20.95;;;;;;;3.92;100.00;100135.69;5055160;28;20016;-76
2022/09/29 06:53:47;;;;;;;29.98;20.95;;;;;;;4.00;100.00;100138.72;5054935;28;20028;-77
2022/09/29 06:56:13;;;;;;;28.85;20.38;;;;;;;4.10;100.00;100135.72;5054009;28;20446;-77
2022/09/29 06:58:39;;;;;;;27.38;20.30;;;;;;;4.18;100.00;100143.88;5054713;28;20108;-77
2022/09/29 07:01:05;;;;;;;29.73;20.63;;;;;;;4.24;100.00;100144.41;5055036;28;20107;-76
2022/09/29 07:03:31;;;;;;;28.52;20.88;;;;;;;4.32;100.00;100142.28;5054923;28;20028;-80
2022/09/29 07:06:00;;;;;;;28.85;19.83;;;;;;;4.39;100.00;100150.50;5054944;28;20029;-75
2022/09/29 07:08:25;;;;;;;29.88;21.00;;;;;;;4.47;100.00;100155.25;5054856;28;20130;-76
2022/09/29 07:10:51;;;;;;;32.05;22.38;;;;;;;4.55;100.00;100148.88;5054690;28;20028;-77
2022/09/29 07:13:17;;;;;;;29.85;23.20;;;;;;;4.60;100.00;100146.06;5054609;28;20489;-75
2022/09/29 07:15:42;;;;;;;29.52;22.50;;;;;;;4.52;100.00;100120.91;5054886;28;20464;-78
2022/09/29 07:18:08;;;;;;;29.25;22.20;;;;;;;4.72;100.00;100139.50;5054512;28;20049;-78
2022/09/29 07:20:34;;;;;;;29.90;23.13;;;;;;;4.90;100.00;100162.44;5053684;28;20025;-82
2022/09/29 07:22:59;;;;;;;31.55;23.08;;;;;;;4.99;100.00;100162.91;5054730;28;20075;-74
2022/09/29 07:25:25;;;;;;;29.45;23.08;;;;;;;5.05;100.00;100153.19;5054028;28;20547;-75
2022/09/29 07:27:50;;;;;;;30.50;23.05;;;;;;;5.17;100.00;100167.91;5085440;28;20055;-74
2022/09/29 07:30:17;;;;;;;31.90;23.38;;;;;;;5.07;100.00;100136.00;5054288;28;20503;-76
2022/09/29 07:32:42;;;;;;;32.47;23.45;;;;;;;5.29;100.00;100156.22;5054610;28;20031;-74
2022/09/29 07:35:08;;;;;;;31.08;23.98;;;;;;;5.42;100.00;100170.03;5054531;28;20025;-77
2022/09/29 07:37:33;;;;;;;31.52;23.63;;;;;;;5.53;100.00;100171.22;5054211;28;20032;-77
2022/09/29 07:39:59;;;;;;;29.40;24.05;;;;;;;5.59;100.00;100169.13;5053913;28;20415;-77
2022/09/29 07:42:27;;;;;;;31.00;23.60;;;;;;;5.69;100.00;100167.75;5086334;28;20025;-75
2022/09/29 07:44:52;;;;;;;33.95;24.08;;;;;;;5.64;100.00;100150.97;5053954;28;20057;-82
2022/09/29 07:47:18;;;;;;;31.70;23.35;;;;;;;5.72;100.00;100157.34;5053884;28;20060;-82
2022/09/29 07:49:43;;;;;;;32.13;24.27;;;;;;;5.77;100.00;100146.84;5053986;28;20485;-84
2022/09/29 07:52:09;;;;;;;28.73;23.50;;;;;;;6.00;100.00;100172.09;5053788;28;20017;-81
2022/09/29 07:54:34;;;;;;;30.70;24.17;;;;;;;6.11;100.00;100175.81;5053780;28;20519;-82
2022/09/29 07:57:02;;;;;;;31.83;24.65;;;;;;;6.18;100.00;100177.09;5053648;28;20025;-79
2022/09/29 07:59:28;;;;;;;35.40;24.48;;;;;;;6.30;100.00;100181.59;5053594;28;20020;-81
2022/09/29 08:01:53;;;;;;;33.33;23.83;;;;;;;6.07;100.00;100133.28;5053553;28;20362;-76
2022/09/29 08:04:19;;;;;;;30.92;24.35;;;;;;;6.36;100.00;100173.53;5053554;28;20044;-74
2022/09/29 08:06:45;;;;;;;28.80;22.88;;;;;;;6.54;100.00;100182.75;5053632;28;20025;-79
2022/09/29 08:09:11;;;;;;;30.05;23.02;;;;;;;6.52;100.00;100171.75;5053282;28;20563;-80
2022/09/29 08:11:38;;;;;;;29.48;23.00;;;;;;;6.61;100.00;100176.38;5053305;28;20104;-80
2022/09/29 08:14:04;;;;;;;29.58;22.05;;;;;;;6.81;100.00;100190.63;5053437;28;20387;-76
2022/09/29 08:16:30;;;;;;;29.00;22.00;;;;;;;6.86;100.00;100201.44;5053290;28;20104;-80
2022/09/29 08:18:55;;;;;;;28.23;21.40;;;;;;;6.94;100.00;100197.63;5053196;28;20385;-78
2022/09/29 08:21:21;;;;;;;28.52;22.90;;;;;;;6.99;100.00;100196.44;5053207;28;20025;-77
2022/09/29 08:23:46;;;;;;;25.92;20.85;;;;;;;7.07;100.00;100206.25;5053116;28;20036;-78
2022/09/29 08:26:17;;;;;;;28.90;21.45;;;;;;;7.15;100.00;100204.06;5053051;28;20020;-78
2022/09/29 08:28:43;;;;;;;29.40;21.38;;;;;;;7.07;100.00;100178.00;5053227;28;20025;-81
2022/09/29 08:31:12;;;;;;;27.45;22.13;;;;;;;7.29;100.00;100206.66;5052966;28;20028;-79
2022/09/29 08:33:37;;;;;;;26.95;20.52;;;;;;;7.24;100.00;100195.81;5050391;28;20040;-77
2022/09/29 08:36:13;;;;;;;31.27;22.00;;;;;;;7.39;100.00;100212.06;5053056;28;20040;-77
2022/09/29 08:38:41;;;;;;;28.58;20.77;;;;;;;7.46;100.00;100211.59;5052536;28;20452;-81
2022/09/29 08:41:24;;;;;;;28.23;20.75;;;;;;;7.57;100.00;100223.81;5053024;28;20017;-75
2022/09/29 08:43:53;;;;;;;27.23;21.45;;;;;;;7.50;100.00;100212.25;5053256;28;20108;-77
2022/09/29 08:46:30;;;;;;;26.45;21.05;;;;;;;7.69;100.00;100232.53;5051538;28;20107;-75
2022/09/29 08:49:02;;;;;;;27.25;21.70;;;;;;;7.76;100.00;100223.50;5053198;28;20102;-79
2022/09/29 08:51:33;;;;;;;29.43;21.50;;;;;;;7.83;100.00;100224.78;5052921;28;20032;-76
2022/09/29 08:54:05;;;;;;;29.17;22.38;;;;;;;7.82;100.00;100212.03;5052987;28;20032;-77
2022/09/29 08:56:32;;;;;;;27.25;21.75;;;;;;;7.88;100.00;100209.09;5052600;28;20033;-81
2022/09/29 08:58:58;;;;;;;26.92;19.85;;;;;;;7.95;100.00;100203.47;5052986;28;20040;-81
2022/09/29 09:01:26;;;;;;;28.45;21.00;;;;;;;8.21;100.00;100234.47;5051357;28;20407;-83
2022/09/29 09:04:05;;;;;;;28.65;20.88;;;;;;;8.28;100.00;100231.41;5052890;28;20033;-79
2022/09/29 09:06:39;;;;;;;24.30;18.75;;;;;;;8.32;100.00;100237.19;5052770;28;20499;-82
2022/09/29 09:09:10;;;;;;;23.95;19.27;;;;;;;8.46;100.00;100237.19;5052814;28;20067;-83
2022/09/29 09:11:54;;;;;;;24.27;19.50;;;;;;;8.55;100.00;100240.91;5052840;28;20079;-83
2022/09/29 09:14:43;;;;;;;27.13;18.60;;;;;;;8.66;100.00;100240.22;5052963;28;20028;-82
2022/09/29 09:17:26;;;;;;;22.15;17.92;;;;;;;8.64;100.00;100227.44;5052682;28;20039;-80
2022/09/29 09:20:23;;;;;;;23.30;16.13;;;;;;;8.74;100.00;100237.97;5052920;28;20029;-80
2022/09/29 09:22:58;;;;;;;22.73;17.40;;;;;;;8.87;100.00;100238.84;5052181;28;20128;-83
2022/09/29 09:25:36;;;;;;;20.80;16.88;;;;;;;8.88;100.00;100240.47;5052724;28;20029;-83
2022/09/29 09:28:16;;;;;;;21.77;15.50;;;;;;;8.92;100.00;100239.34;5052507;28;20078;-83
2022/09/29 09:30:49;;;;;;;20.53;15.67;;;;;;;8.90;100.00;100233.47;5052753;28;20415;-83
2022/09/29 09:33:30;;;;;;;18.63;15.05;;;;;;;9.01;100.00;100243.91;5052553;28;20024;-74
2022/09/29 09:36:19;;;;;;;17.42;13.05;;;;;;;8.98;100.00;100238.13;5052833;28;20067;-81
2022/09/29 09:39:01;;;;;;;19.45;14.77;;;;;;;9.06;100.00;100230.72;5052657;28;20487;-82
2022/09/29 09:41:29;;;;;;;22.52;15.68;;;;;;;9.18;100.00;100246.19;5052488;28;20486;-80
2022/09/29 09:44:12;;;;;;;21.67;15.02;;;;;;;9.12;100.00;100225.97;5052869;28;20028;-81
2022/09/29 09:46:48;;;;;;;21.75;15.98;;;;;;;9.36;100.00;100244.16;5052442;28;20025;-83
2022/09/29 09:49:22;;;;;;;18.73;14.50;;;;;;;9.22;100.00;100218.47;5052971;28;20055;-80
2022/09/29 09:52:14;;;;;;;20.13;15.05;;;;;;;9.44;100.00;100248.78;5056251;28;20067;-76
2022/09/29 09:54:45;;;;;;;22.27;15.57;;;;;;;9.58;100.00;100256.41;5048787;28;20033;-76
2022/09/29 09:57:31;;;;;;;17.25;12.40;;;;;;;9.65;100.00;100251.66;5055968;28;20021;-83
2022/09/29 10:00:14;;;;;;;16.38;11.93;;;;;;;9.71;99.14;100258.97;5056314;28;20024;-78
2022/09/29 10:02:51;;;;;;;17.42;12.00;;;;;;;9.58;98.24;100240.94;5055908;28;20495;-81
2022/09/29 10:05:28;;;;;;;14.75;10.68;;;;;;;9.61;97.20;100234.75;5056025;28;20033;-82
2022/09/29 10:07:54;;;;;;;13.45;9.82;;;;;;;9.78;97.08;100263.59;5056193;28;20029;-77
2022/09/29 10:10:27;;;;;;;12.98;9.13;;;;;;;9.55;95.77;100224.88;5056165;28;20024;-83
2022/09/29 10:13:01;;;;;;;13.43;8.73;;;;;;;9.86;96.71;100257.09;5054687;28;20020;-77
2022/09/29 10:15:51;;;;;;;13.15;8.77;;;;;;;9.88;97.11;100265.53;5055920;28;20046;-86
2022/09/29 10:18:24;;;;;;;10.25;6.18;;;;;;;9.95;96.34;100256.47;5055513;28;20196;-79
2022/09/29 10:20:50;;;;;;;9.43;6.50;;;;;;;10.01;96.54;100263.75;5055964;28;20021;-83
2022/09/29 10:23:18;;;;;;;10.85;7.82;;;;;;;10.03;95.26;100270.47;5055703;28;20083;-83
2022/09/29 10:26:11;;;;;;;11.32;7.50;;;;;;;9.91;95.01;100240.34;5055592;28;20029;-86
2022/09/29 10:28:53;;;;;;;8.98;6.15;;;;;;;9.98;92.41;100258.81;5055047;28;20384;-83
2022/09/29 10:31:37;;;;;;;9.57;5.97;;;;;;;9.91;95.13;100244.69;5054220;28;20033;-78
2022/09/29 10:34:20;;;;;;;9.38;6.20;;;;;;;10.17;94.57;100279.00;5055614;28;20029;-76
2022/09/29 10:36:51;;;;;;;8.93;6.13;;;;;;;10.20;92.36;100283.94;5055446;28;20108;-79
2022/09/29 10:39:49;;;;;;;9.30;6.15;;;;;;;10.17;92.13;100279.81;5055172;28;20029;-78
2022/09/29 10:42:14;;;;;;;9.07;6.40;;;;;;;10.20;92.27;100284.75;5033135;28;20038;-84
2022/09/29 10:44:39;;;;;;;9.43;6.00;;;;;;;10.20;90.89;100289.09;5033148;28;20029;-82
2022/09/29 10:47:13;;;;;;;8.27;5.32;;;;;;;10.20;90.73;100278.78;5033215;28;20041;-84
2022/09/29 10:49:39;;;;;;;8.43;5.45;;;;;;;10.24;89.09;100290.59;5033065;28;20026;-73
2022/09/29 10:52:15;;;;;;;8.82;6.18;;;;;;;10.29;90.61;100286.72;5033126;28;20046;-72
2022/09/29 10:54:57;;;;;;;7.38;5.55;;;;;;;10.26;90.25;100278.41;5033302;28;20539;-76
2022/09/29 10:57:28;;;;;;;9.57;5.93;;;;;;;10.39;92.09;100278.34;5032766;28;20091;-74
2022/09/29 10:59:56;;;;;;;7.95;5.55;;;;;;;10.40;87.85;100269.66;5032928;28;20462;-78
2022/09/29 11:02:38;;;;;;;8.23;5.20;;;;;;;10.62;89.06;100286.13;5032563;28;20032;-84
2022/09/29 11:05:16;;;;;;;9.20;5.68;;;;;;;10.56;87.54;100278.78;5032900;28;20041;-78
2022/09/29 11:07:47;;;;;;;9.75;6.10;;;;;;;10.70;88.92;100279.56;5018099;28;20474;-85
2022/09/29 11:10:27;;;;;;;8.82;5.47;;;;;;;10.67;88.12;100265.09;5012937;28;20030;-83
2022/09/29 11:12:53;;;;;;;7.90;5.50;;;;;;;10.83;86.17;100283.72;5012461;28;20057;-85
2022/09/29 11:15:24;;;;;;;8.18;4.95;;;;;;;10.84;88.09;100274.22;4996367;28;20034;-79
2022/09/29 11:17:51;;;;;;;7.20;4.70;;;;;;;10.91;88.04;100260.75;5024043;28;20440;-83
2022/09/29 11:20:18;;;;;;;6.07;3.67;;;;;;;11.13;84.46;100285.84;5016882;28;20037;-85
2022/09/29 11:23:02;;;;;;;5.18;3.28;;;;;;;11.25;84.17;100288.44;5034708;28;20033;-83
2022/09/29 11:25:36;;;;;;;5.15;2.80;;;;;;;11.39;83.10;100286.47;5034451;28;20040;-84
2022/09/29 11:28:05;;;;;;;5.30;3.00;;;;;;;11.51;81.16;100289.91;5034530;28;20033;-76
2022/09/29 11:31:01;;;;;;;4.57;2.40;;;;;;;11.57;82.41;100284.25;5034464;28;20075;-74
2022/09/29 11:33:51;;;;;;;3.53;2.28;;;;;;;11.63;81.12;100285.56;5034703;28;20037;-90